sensor_id;sensor_type;location;lat;lon;timestamp;temperature;humidity
26342;DHT22;14054;50.108;8.640;2023-07-16T16:38:32;26.30;82.80
26342;DHT22;14054;50.108;8.640;2023-07-16T16:41:02;26.10;82.70
26342;DHT22;14054;50.108;8.640;2023-07-16T16:43:35;25.90;82.60
26342;DHT22;14054;50.108;8.640;2023-07-16T16:46:01;25.70;82.20
26342;DHT22;14054;50.108;8.640;2023-07-16T16:48:27;25.60;82.00
26342;DHT22;14054;50.108;8.640;2023-07-16T16:50:55;25.70;82.80
26342;DHT22;14054;50.108;8.640;2023-07-16T16:53:21;25.60;82.00
26342;DHT22;14054;50.108;8.640;2023-07-16T16:55:47;25.60;81.40
26342;DHT22;14054;50.108;8.640;2023-07-16T16:58:12;25.60;81.40
26342;DHT22;14054;50.108;8.640;2023-07-16T17:00:38;25.50;81.40
26342;DHT22;14054;50.108;8.640;2023-07-16T17:03:03;25.40;81.50
26342;DHT22;14054;50.108;8.640;2023-07-16T17:05:29;25.40;82.10
26342;DHT22;14054;50.108;8.640;2023-07-16T17:07:55;25.40;82.40
26342;DHT22;14054;50.108;8.640;2023-07-16T17:10:23;25.40;82.10
26342;DHT22;14054;50.108;8.640;2023-07-16T17:12:48;25.40;82.20
26342;DHT22;14054;50.108;8.640;2023-07-16T17:15:14;25.40;81.30
26342;DHT22;14054;50.108;8.640;2023-07-16T17:17:39;25.40;81.10
26342;DHT22;14054;50.108;8.640;2023-07-16T17:20:05;25.40;80.90
26342;DHT22;14054;50.108;8.640;2023-07-16T17:22:35;25.20;80.40
26342;DHT22;14054;50.108;8.640;2023-07-16T17:25:05;25.10;80.90
26342;DHT22;14054;50.108;8.640;2023-07-16T17:27:35;25.10;81.60
26342;DHT22;14054;50.108;8.640;2023-07-16T17:30:01;25.10;81.80
26342;DHT22;14054;50.108;8.640;2023-07-16T17:32:27;25.10;82.30
26342;DHT22;14054;50.108;8.640;2023-07-16T17:34:53;25.10;82.50
26342;DHT22;14054;50.108;8.640;2023-07-16T17:37:18;25.10;82.20
26342;DHT22;14054;50.108;8.640;2023-07-16T17:39:44;25.10;82.70
26342;DHT22;14054;50.108;8.640;2023-07-16T17:42:13;25.10;82.40
26342;DHT22;14054;50.108;8.640;2023-07-16T17:44:39;25.10;82.80
26342;DHT22;14054;50.108;8.640;2023-07-16T17:47:05;25.00;82.70
26342;DHT22;14054;50.108;8.640;2023-07-16T17:49:31;25.00;83.00
26342;DHT22;14054;50.108;8.640;2023-07-16T17:51:56;25.10;83.20
26342;DHT22;14054;50.108;8.640;2023-07-16T17:54:22;25.00;83.40
26342;DHT22;14054;50.108;8.640;2023-07-16T17:56:48;25.00;83.30
26342;DHT22;14054;50.108;8.640;2023-07-16T17:59:17;25.00;83.60
26342;DHT22;14054;50.108;8.640;2023-07-16T18:01:43;25.00;84.20
26342;DHT22;14054;50.108;8.640;2023-07-16T18:04:08;25.00;84.20
26342;DHT22;14054;50.108;8.640;2023-07-16T18:06:34;24.90;85.00
26342;DHT22;14054;50.108;8.640;2023-07-16T18:08:59;24.90;84.30
26342;DHT22;14054;50.108;8.640;2023-07-16T18:11:25;24.90;85.00
26342;DHT22;14054;50.108;8.640;2023-07-16T18:13:50;24.80;84.60
26342;DHT22;14054;50.108;8.640;2023-07-16T18:16:16;24.80;84.80
26342;DHT22;14054;50.108;8.640;2023-07-16T18:18:41;24.70;85.10
26342;DHT22;14054;50.108;8.640;2023-07-16T18:21:07;24.80;85.10
26342;DHT22;14054;50.108;8.640;2023-07-16T18:23:32;24.70;84.90
26342;DHT22;14054;50.108;8.640;2023-07-16T18:25:58;24.70;85.20
26342;DHT22;14054;50.108;8.640;2023-07-16T18:28:23;24.50;85.30
26342;DHT22;14054;50.108;8.640;2023-07-16T18:30:49;24.50;85.90
26342;DHT22;14054;50.108;8.640;2023-07-16T18:33:14;24.40;86.10
26342;DHT22;14054;50.108;8.640;2023-07-16T18:35:40;24.40;86.20
26342;DHT22;14054;50.108;8.640;2023-07-16T18:38:07;24.40;86.20
26342;DHT22;14054;50.108;8.640;2023-07-16T18:40:33;24.30;86.70
26342;DHT22;14054;50.108;8.640;2023-07-16T18:42:59;24.30;87.00
26342;DHT22;14054;50.108;8.640;2023-07-16T18:45:25;24.10;87.00
26342;DHT22;14054;50.108;8.640;2023-07-16T18:47:51;24.10;87.30
26342;DHT22;14054;50.108;8.640;2023-07-16T18:50:16;24.00;87.50
26342;DHT22;14054;50.108;8.640;2023-07-16T18:52:42;23.90;87.10
26342;DHT22;14054;50.108;8.640;2023-07-16T18:55:07;23.90;87.40
26342;DHT22;14054;50.108;8.640;2023-07-16T18:57:33;23.80;87.60
26342;DHT22;14054;50.108;8.640;2023-07-16T18:59:58;23.80;88.10
26342;DHT22;14054;50.108;8.640;2023-07-16T19:02:24;23.80;88.20
26342;DHT22;14054;50.108;8.640;2023-07-16T19:04:49;23.70;88.40
26342;DHT22;14054;50.108;8.640;2023-07-16T19:07:15;23.70;88.80
26342;DHT22;14054;50.108;8.640;2023-07-16T19:09:40;23.60;88.70
26342;DHT22;14054;50.108;8.640;2023-07-16T19:12:06;23.60;89.00
26342;DHT22;14054;50.108;8.640;2023-07-16T19:14:32;23.50;89.10
26342;DHT22;14054;50.108;8.640;2023-07-16T19:16:58;23.50;89.60
26342;DHT22;14054;50.108;8.640;2023-07-16T19:19:23;23.50;89.70
26342;DHT22;14054;50.108;8.640;2023-07-16T19:21:49;23.40;90.10
26342;DHT22;14054;50.108;8.640;2023-07-16T19:24:14;23.40;90.10
26342;DHT22;14054;50.108;8.640;2023-07-16T19:26:40;23.30;90.30
26342;DHT22;14054;50.108;8.640;2023-07-16T19:29:05;23.30;90.30
26342;DHT22;14054;50.108;8.640;2023-07-16T19:31:31;23.30;90.40
26342;DHT22;14054;50.108;8.640;2023-07-16T19:33:56;23.30;90.30
26342;DHT22;14054;50.108;8.640;2023-07-16T19:36:22;23.20;90.50
26342;DHT22;14054;50.108;8.640;2023-07-16T19:38:48;23.20;90.60
26342;DHT22;14054;50.108;8.640;2023-07-16T19:41:13;23.10;90.80
26342;DHT22;14054;50.108;8.640;2023-07-16T19:43:39;23.10;90.80
26342;DHT22;14054;50.108;8.640;2023-07-16T19:46:05;23.10;90.80
26342;DHT22;14054;50.108;8.640;2023-07-16T19:48:32;23.10;91.30
26342;DHT22;14054;50.108;8.640;2023-07-16T19:50:58;23.10;91.20
26342;DHT22;14054;50.108;8.640;2023-07-16T19:53:23;23.00;91.20
26342;DHT22;14054;50.108;8.640;2023-07-16T19:55:49;22.90;91.30
26342;DHT22;14054;50.108;8.640;2023-07-16T19:58:15;23.00;91.70
26342;DHT22;14054;50.108;8.640;2023-07-16T20:00:41;22.90;91.50
26342;DHT22;14054;50.108;8.640;2023-07-16T20:03:07;22.90;91.50
26342;DHT22;14054;50.108;8.640;2023-07-16T20:05:36;22.80;91.70
26342;DHT22;14054;50.108;8.640;2023-07-16T20:08:02;22.80;91.70
26342;DHT22;14054;50.108;8.640;2023-07-16T20:10:29;22.80;91.80
26342;DHT22;14054;50.108;8.640;2023-07-16T20:12:55;22.80;91.80
26342;DHT22;14054;50.108;8.640;2023-07-16T20:15:20;22.80;92.10
26342;DHT22;14054;50.108;8.640;2023-07-16T20:17:46;22.80;92.20
26342;DHT22;14054;50.108;8.640;2023-07-16T20:20:11;22.70;92.40
26342;DHT22;14054;50.108;8.640;2023-07-16T20:22:40;22.60;92.60
26342;DHT22;14054;50.108;8.640;2023-07-16T20:25:07;22.60;92.70
26342;DHT22;14054;50.108;8.640;2023-07-16T20:27:32;22.60;93.30
26342;DHT22;14054;50.108;8.640;2023-07-16T20:29:58;22.50;92.90
26342;DHT22;14054;50.108;8.640;2023-07-16T20:32:23;22.50;93.10
26342;DHT22;14054;50.108;8.640;2023-07-16T20:34:49;22.50;93.20
26342;DHT22;14054;50.108;8.640;2023-07-16T20:37:14;22.40;93.20
26342;DHT22;14054;50.108;8.640;2023-07-16T20:39:40;22.40;93.50
26342;DHT22;14054;50.108;8.640;2023-07-16T20:42:06;22.30;93.50
26342;DHT22;14054;50.108;8.640;2023-07-16T20:44:31;22.30;93.60
26342;DHT22;14054;50.108;8.640;2023-07-16T20:46:57;22.20;93.80
26342;DHT22;14054;50.108;8.640;2023-07-16T20:49:22;22.20;93.90
26342;DHT22;14054;50.108;8.640;2023-07-16T20:51:49;22.20;94.10
26342;DHT22;14054;50.108;8.640;2023-07-16T20:54:15;22.10;94.40
26342;DHT22;14054;50.108;8.640;2023-07-16T20:56:40;22.00;94.50
26342;DHT22;14054;50.108;8.640;2023-07-16T20:59:06;22.00;94.70
26342;DHT22;14054;50.108;8.640;2023-07-16T21:01:32;21.90;94.90
26342;DHT22;14054;50.108;8.640;2023-07-16T21:03:58;21.90;95.10
26342;DHT22;14054;50.108;8.640;2023-07-16T21:06:23;21.80;95.30
26342;DHT22;14054;50.108;8.640;2023-07-16T21:08:49;21.80;95.50
26342;DHT22;14054;50.108;8.640;2023-07-16T21:11:14;21.80;95.60
26342;DHT22;14054;50.108;8.640;2023-07-16T21:13:40;21.70;95.80
26342;DHT22;14054;50.108;8.640;2023-07-16T21:16:05;21.70;96.00
26342;DHT22;14054;50.108;8.640;2023-07-16T21:18:31;21.60;96.20
26342;DHT22;14054;50.108;8.640;2023-07-16T21:20:56;21.60;96.40
26342;DHT22;14054;50.108;8.640;2023-07-16T21:23:22;21.60;96.60
26342;DHT22;14054;50.108;8.640;2023-07-16T21:25:50;21.60;96.90
26342;DHT22;14054;50.108;8.640;2023-07-16T21:28:16;21.50;97.00
26342;DHT22;14054;50.108;8.640;2023-07-16T21:30:42;21.50;97.30
26342;DHT22;14054;50.108;8.640;2023-07-16T21:33:08;21.40;97.50
26342;DHT22;14054;50.108;8.640;2023-07-16T21:35:33;21.40;98.40
26342;DHT22;14054;50.108;8.640;2023-07-16T21:37:59;21.40;98.10
26342;DHT22;14054;50.108;8.640;2023-07-16T21:40:25;21.40;98.20
26342;DHT22;14054;50.108;8.640;2023-07-16T21:42:51;21.30;98.40
26342;DHT22;14054;50.108;8.640;2023-07-16T21:45:16;21.30;98.70
26342;DHT22;14054;50.108;8.640;2023-07-16T21:47:42;21.20;99.30
26342;DHT22;14054;50.108;8.640;2023-07-16T21:50:08;21.20;99.10
26342;DHT22;14054;50.108;8.640;2023-07-16T21:52:34;21.10;99.20
26342;DHT22;14054;50.108;8.640;2023-07-16T21:54:59;21.10;99.40
26342;DHT22;14054;50.108;8.640;2023-07-16T21:57:25;21.10;99.60
26342;DHT22;14054;50.108;8.640;2023-07-16T21:59:50;21.10;99.80
26342;DHT22;14054;50.108;8.640;2023-07-16T22:02:16;21.10;99.90
26342;DHT22;14054;50.108;8.640;2023-07-16T22:04:43;21.10;99.90
26342;DHT22;14054;50.108;8.640;2023-07-16T22:07:09;21.10;99.90
26342;DHT22;14054;50.108;8.640;2023-07-16T22:09:34;21.00;99.90
26342;DHT22;14054;50.108;8.640;2023-07-16T22:12:00;20.90;99.90
26342;DHT22;14054;50.108;8.640;2023-07-16T22:14:25;20.90;99.90
26342;DHT22;14054;50.108;8.640;2023-07-16T22:16:51;20.80;99.90
26342;DHT22;14054;50.108;8.640;2023-07-16T22:19:18;20.80;99.90
26342;DHT22;14054;50.108;8.640;2023-07-16T22:21:43;20.80;99.90
26342;DHT22;14054;50.108;8.640;2023-07-16T22:24:09;20.80;99.90
26342;DHT22;14054;50.108;8.640;2023-07-16T22:26:34;20.80;99.90
26342;DHT22;14054;50.108;8.640;2023-07-16T22:29:00;20.70;99.90
26342;DHT22;14054;50.108;8.640;2023-07-16T22:31:26;20.70;99.90
26342;DHT22;14054;50.108;8.640;2023-07-16T22:33:51;20.70;99.90
26342;DHT22;14054;50.108;8.640;2023-07-16T22:36:17;20.70;99.90
26342;DHT22;14054;50.108;8.640;2023-07-16T22:38:43;20.70;99.90
26342;DHT22;14054;50.108;8.640;2023-07-16T22:41:09;20.70;99.90
26342;DHT22;14054;50.108;8.640;2023-07-16T22:43:34;20.70;99.90
26342;DHT22;14054;50.108;8.640;2023-07-16T22:46:00;20.70;99.90
26342;DHT22;14054;50.108;8.640;2023-07-16T22:48:26;20.70;99.90
26342;DHT22;14054;50.108;8.640;2023-07-16T22:50:52;20.60;99.90
26342;DHT22;14054;50.108;8.640;2023-07-16T22:53:17;20.60;99.90
26342;DHT22;14054;50.108;8.640;2023-07-16T22:55:43;20.60;99.90
26342;DHT22;14054;50.108;8.640;2023-07-16T22:58:12;20.60;99.90
26342;DHT22;14054;50.108;8.640;2023-07-16T23:00:39;20.60;99.90
26342;DHT22;14054;50.108;8.640;2023-07-16T23:03:05;20.60;99.90
26342;DHT22;14054;50.108;8.640;2023-07-16T23:05:30;20.60;99.90
26342;DHT22;14054;50.108;8.640;2023-07-16T23:07:56;20.60;99.90
26342;DHT22;14054;50.108;8.640;2023-07-16T23:10:22;20.50;99.90
26342;DHT22;14054;50.108;8.640;2023-07-16T23:12:47;20.50;99.90
26342;DHT22;14054;50.108;8.640;2023-07-16T23:15:13;20.50;99.90
26342;DHT22;14054;50.108;8.640;2023-07-16T23:17:41;20.40;99.90
26342;DHT22;14054;50.108;8.640;2023-07-16T23:20:07;20.40;99.90
26342;DHT22;14054;50.108;8.640;2023-07-16T23:22:36;20.30;99.90
26342;DHT22;14054;50.108;8.640;2023-07-16T23:25:03;20.30;99.90
26342;DHT22;14054;50.108;8.640;2023-07-16T23:27:29;20.20;99.90
26342;DHT22;14054;50.108;8.640;2023-07-16T23:29:55;20.10;99.90
26342;DHT22;14054;50.108;8.640;2023-07-16T23:32:21;20.10;99.90
26342;DHT22;14054;50.108;8.640;2023-07-16T23:34:47;20.10;99.90
26342;DHT22;14054;50.108;8.640;2023-07-16T23:37:12;20.00;99.90
26342;DHT22;14054;50.108;8.640;2023-07-16T23:39:38;20.00;99.90
26342;DHT22;14054;50.108;8.640;2023-07-16T23:42:03;19.90;99.90
26342;DHT22;14054;50.108;8.640;2023-07-16T23:44:29;20.00;99.90
26342;DHT22;14054;50.108;8.640;2023-07-16T23:46:55;20.00;99.90
26342;DHT22;14054;50.108;8.640;2023-07-16T23:49:22;20.00;99.90
26342;DHT22;14054;50.108;8.640;2023-07-16T23:51:47;19.90;99.90
26342;DHT22;14054;50.108;8.640;2023-07-16T23:54:13;19.90;99.90
26342;DHT22;14054;50.108;8.640;2023-07-16T23:56:38;19.90;99.90
26342;DHT22;14054;50.108;8.640;2023-07-16T23:59:04;19.90;99.90
